CYAM

Sault Ste Marie Airport

Sault Ste Marie, , Canada
METAR CYAM 202200Z 29005KT 15SM BKN045 BKN140 OVC210 02/M01 A2986 RMK SC6AC1CI1 SLP123
Observed Flight Rules
Jan-20 @ 22:00 UTC (45 minutes ago) Visual Flight Rules
Wind Visibility Clouds
290° at 5 knots 15 miles
  • Broken at 4,500' AGL
  • Broken at 14,000' AGL
  • Overcast at 21,000' AGL
Temperatures Readings
Current 2°C / 36°F
Dewpoint -1°C / 30°F
Humidity 81%
Altimeter 29.86" Hg
Pressure 1012.3 hPa
Elevation 192
METAR CYAM 202200Z 29005KT 15SM BKN045 BKN140 OVC210 02/M01 A2986 RMK SC6AC1CI1 SLP123
Observed Flight Rules
Jan-20 @ 22:00 UTC
(45 minutes ago)
VFR
Wind Visibility
290° at 5 knots 15 miles
Clouds
  • Broken at 4,500' AGL
  • Broken at 14,000' AGL
  • Overcast at 21,000' AGL
Temperature Dewpoint
2°C / 36°F -1°C / 30°F
Humidity Altimeter Pressure
81% 29.86" Hg 1012.3 hPa